createdAt,value
2017-06-13T07:43:53.691Z,27.00
2017-06-13T07:46:21.911Z,26.90
2017-06-13T07:48:49.368Z,26.80
2017-06-13T07:51:16.824Z,27.70
2017-06-13T07:53:44.279Z,28.00
2017-06-13T07:56:11.734Z,24.80
2017-06-13T07:58:39.192Z,24.00
2017-06-13T08:01:06.647Z,26.00
2017-06-13T08:03:34.103Z,27.70
2017-06-13T08:06:01.560Z,28.50
2017-06-13T08:08:29.015Z,27.40
2017-06-13T08:10:56.496Z,26.80
2017-06-13T08:13:23.931Z,27.50
2017-06-13T08:15:51.383Z,25.70
2017-06-13T08:18:18.840Z,26.60
2017-06-13T08:20:46.282Z,27.00
2017-06-13T08:23:13.731Z,25.40
2017-06-13T08:25:41.176Z,25.20
2017-06-13T08:28:09.407Z,24.40
2017-06-13T08:30:36.866Z,24.40
2017-06-13T08:33:04.319Z,25.60
2017-06-13T08:35:31.776Z,25.50
2017-06-13T08:37:59.231Z,25.60
2017-06-13T08:40:26.687Z,26.10
2017-06-13T08:42:54.144Z,26.60
2017-06-13T08:45:21.598Z,27.40
2017-06-13T08:47:49.055Z,27.10
2017-06-13T08:50:16.503Z,27.20
2017-06-13T08:52:43.971Z,28.40
2017-06-13T08:55:11.428Z,28.00
2017-06-13T08:57:38.882Z,26.90
2017-06-13T09:00:06.339Z,28.30
2017-06-13T09:02:33.783Z,29.40
2017-06-13T09:05:01.240Z,28.60
2017-06-13T09:07:28.687Z,29.40
2017-06-13T09:09:56.143Z,27.00
2017-06-13T09:12:23.584Z,26.30
2017-06-13T09:14:51.027Z,28.40
2017-06-13T09:17:18.464Z,29.60
2017-06-13T09:19:46.706Z,28.40
2017-06-13T09:22:14.152Z,28.40
2017-06-13T09:24:41.595Z,28.60
2017-06-13T09:27:09.053Z,29.50
2017-06-13T09:29:36.507Z,28.30
2017-06-13T09:32:03.966Z,29.30
2017-06-13T09:34:31.424Z,30.00
2017-06-13T09:36:58.875Z,30.60
2017-06-13T09:39:26.329Z,27.80
2017-06-13T09:41:53.773Z,28.80
2017-06-13T09:44:21.211Z,29.80
2017-06-13T09:46:49.438Z,29.30
2017-06-13T09:49:16.899Z,29.30
2017-06-13T09:51:44.356Z,27.10
2017-06-13T09:54:11.811Z,26.70
2017-06-13T09:56:39.268Z,27.00
2017-06-13T09:59:06.710Z,28.10
2017-06-13T10:01:34.155Z,29.20
2017-06-13T10:04:01.611Z,29.20
2017-06-13T10:06:29.060Z,27.60
2017-06-13T10:08:56.498Z,27.40
2017-06-13T10:11:23.940Z,28.40
2017-06-13T10:13:52.163Z,30.40
2017-06-13T10:16:19.610Z,30.30
2017-06-13T10:18:47.072Z,29.50
2017-06-13T10:21:14.524Z,29.70
2017-06-13T10:23:41.986Z,29.70
2017-06-13T10:26:09.439Z,28.90
2017-06-13T10:28:36.898Z,29.50
2017-06-13T10:31:04.350Z,28.70
2017-06-13T10:33:31.807Z,29.70
2017-06-13T10:35:59.279Z,30.30
2017-06-13T10:38:26.723Z,30.60
2017-06-13T10:40:54.175Z,29.90
2017-06-13T10:43:21.631Z,28.80
2017-06-13T10:45:49.879Z,29.30
2017-06-13T10:48:17.319Z,25.60
2017-06-13T10:50:45.539Z,26.10
2017-06-13T10:53:12.995Z,26.10
2017-06-13T10:55:40.451Z,27.70
2017-06-13T10:58:07.908Z,28.30
2017-06-13T11:00:35.367Z,29.20
2017-06-13T11:03:02.831Z,29.60
2017-06-13T11:05:30.308Z,28.20
2017-06-13T11:07:57.751Z,28.90
2017-06-13T11:10:25.216Z,28.30
2017-06-13T11:12:52.662Z,28.30
2017-06-13T11:15:20.107Z,28.90
2017-06-13T11:17:47.563Z,29.70
2017-06-13T11:20:15.004Z,29.50
2017-06-13T11:22:43.484Z,29.30
2017-06-13T11:25:12.276Z,27.40
2017-06-13T11:27:39.827Z,26.50
2017-06-13T11:30:07.390Z,25.70
2017-06-13T11:32:34.839Z,26.80
2017-06-13T11:35:02.275Z,27.80
2017-06-13T11:37:29.744Z,27.90
2017-06-13T11:39:57.187Z,28.90
2017-06-13T11:42:24.659Z,29.30
2017-06-13T11:44:52.112Z,29.70
2017-06-13T11:47:19.559Z,28.10
2017-06-13T11:49:47.054Z,29.10
2017-06-13T11:52:15.278Z,29.90
2017-06-13T11:54:43.405Z,29.90
2017-06-13T11:57:11.659Z,30.50
2017-06-13T11:59:39.972Z,30.50
2017-06-13T12:02:07.418Z,30.10
2017-06-13T12:04:34.925Z,30.00
2017-06-13T12:07:02.417Z,30.00
2017-06-13T12:09:29.895Z,29.50
2017-06-13T12:11:57.350Z,26.60
2017-06-13T12:14:24.812Z,26.60
2017-06-13T12:16:52.251Z,25.60
2017-06-13T12:19:19.706Z,26.70
2017-06-13T12:21:47.151Z,27.10
2017-06-13T12:24:14.595Z,27.70
2017-06-13T12:26:42.096Z,27.70
2017-06-13T12:29:10.323Z,27.40
2017-06-13T12:31:37.784Z,27.40
2017-06-13T12:34:05.224Z,27.40
2017-06-13T12:36:32.671Z,27.50
2017-06-13T12:39:00.302Z,27.80
2017-06-13T12:41:28.562Z,27.00
2017-06-13T12:43:56.012Z,27.70
2017-06-13T12:46:23.820Z,28.40
2017-06-13T12:48:51.268Z,28.10
2017-06-13T12:51:19.506Z,28.60
2017-06-13T12:53:47.049Z,28.50
2017-06-13T12:56:14.499Z,28.60
2017-06-13T12:58:41.950Z,27.60
2017-06-13T13:01:09.396Z,27.90
2017-06-13T13:03:36.860Z,28.00
2017-06-13T13:06:04.300Z,28.10
2017-06-13T13:11:04.699Z,27.80
2017-06-13T13:13:32.939Z,27.90
2017-06-13T13:16:00.383Z,27.70
2017-06-13T13:18:27.967Z,28.10
2017-06-13T13:20:55.412Z,28.40
2017-06-13T13:23:22.859Z,28.70
2017-06-13T13:25:50.387Z,28.80
2017-06-13T13:28:17.876Z,28.80
2017-06-13T13:30:45.394Z,28.40
2017-06-13T13:33:13.607Z,28.30
2017-06-13T13:35:41.062Z,28.30
2017-06-13T13:38:08.608Z,28.20
2017-06-13T13:40:36.081Z,28.00
2017-06-13T13:43:03.660Z,27.60
2017-06-13T13:45:31.194Z,27.70
2017-06-13T13:47:58.652Z,27.70
2017-06-13T13:50:26.107Z,28.00
2017-06-13T13:52:53.554Z,28.10
2017-06-13T13:55:21.007Z,27.70
2017-06-13T13:57:48.479Z,27.90
2017-06-13T14:00:15.919Z,28.10
2017-06-13T14:02:43.367Z,28.10
2017-06-13T14:05:10.815Z,27.40
2017-06-13T14:07:38.998Z,27.50
2017-06-13T14:10:06.476Z,27.20
2017-06-13T14:12:33.946Z,27.30
2017-06-13T14:15:01.387Z,27.50
2017-06-13T14:17:28.843Z,26.70
2017-06-13T14:19:56.287Z,27.00
2017-06-13T14:22:23.739Z,27.30
2017-06-13T14:24:51.182Z,27.50
2017-06-13T14:27:18.639Z,27.40
2017-06-13T14:29:46.086Z,25.90
2017-06-13T14:32:13.543Z,26.50
2017-06-13T14:34:41.755Z,27.40
2017-06-13T14:37:09.194Z,27.30
2017-06-13T14:39:36.643Z,27.50
2017-06-13T14:42:04.151Z,27.70
2017-06-13T14:44:31.649Z,27.30
2017-06-13T14:46:59.095Z,26.70
2017-06-13T14:49:26.556Z,26.60
2017-06-13T14:51:54.768Z,26.10
2017-06-13T14:54:22.258Z,26.10
2017-06-13T14:56:49.734Z,26.00
2017-06-13T14:59:17.952Z,26.30
2017-06-13T15:01:45.391Z,26.20
2017-06-13T15:04:12.835Z,26.40
2017-06-13T15:06:40.276Z,26.50
2017-06-13T15:09:07.739Z,26.30
2017-06-13T15:11:35.951Z,26.70
2017-06-13T15:14:03.775Z,26.70
2017-06-13T15:16:31.988Z,26.10
2017-06-13T15:18:59.437Z,26.10
2017-06-13T15:21:26.882Z,26.40
2017-06-13T15:23:54.327Z,26.20
2017-06-13T15:26:22.586Z,26.60
2017-06-13T15:28:50.019Z,26.60
2017-06-13T15:31:17.479Z,26.60
2017-06-13T15:33:44.923Z,26.80
2017-06-13T15:36:12.375Z,26.10
2017-06-13T15:38:39.819Z,25.90
2017-06-13T15:41:07.268Z,26.20
2017-06-13T15:43:34.723Z,26.40
2017-06-13T15:46:02.181Z,26.40
2017-06-13T15:48:29.635Z,26.40
2017-06-13T15:50:57.103Z,26.30
2017-06-13T15:53:24.547Z,26.00
2017-06-13T15:55:51.997Z,26.00
2017-06-13T15:58:19.443Z,25.80
2017-06-13T16:00:46.883Z,25.60
2017-06-13T16:03:14.410Z,25.30
2017-06-13T16:05:41.908Z,25.10
2017-06-13T16:08:09.359Z,25.00
2017-06-13T16:10:36.795Z,25.00
2017-06-13T16:13:05.020Z,25.00
2017-06-13T16:15:32.508Z,24.90
2017-06-13T16:18:00.071Z,24.80
2017-06-13T16:20:27.549Z,24.90
2017-06-13T16:22:55.750Z,24.60
2017-06-13T16:25:23.245Z,24.60
2017-06-13T16:27:50.698Z,24.80
2017-06-13T16:30:18.183Z,24.90
2017-06-13T16:32:45.640Z,24.90
2017-06-13T16:35:13.096Z,24.70
2017-06-13T16:37:41.307Z,24.80
2017-06-13T16:40:08.756Z,24.70
2017-06-13T16:42:36.446Z,24.80
2017-06-13T16:45:03.909Z,24.90
2017-06-13T16:47:31.354Z,24.70
2017-06-13T16:49:58.806Z,24.70
2017-06-13T16:52:26.255Z,24.70
2017-06-13T16:54:53.700Z,24.40
2017-06-13T16:57:21.151Z,24.50
2017-06-13T16:59:48.595Z,24.50
2017-06-13T17:02:16.884Z,24.50
2017-06-13T17:04:44.333Z,24.50
2017-06-13T17:07:11.772Z,24.40
2017-06-13T17:09:39.996Z,24.50
2017-06-13T17:12:07.445Z,24.40
2017-06-13T17:14:34.902Z,24.50
2017-06-13T17:17:02.332Z,24.50
2017-06-13T17:19:29.782Z,24.50
2017-06-13T17:21:57.227Z,24.00
2017-06-13T17:24:25.443Z,24.00
2017-06-13T17:26:52.899Z,24.00
2017-06-13T17:29:20.343Z,24.00
2017-06-13T17:31:47.795Z,24.10
2017-06-13T17:34:15.237Z,24.00
2017-06-13T17:36:42.683Z,24.10
2017-06-13T17:39:10.898Z,23.80
2017-06-13T17:41:39.346Z,23.80
2017-06-13T17:44:07.551Z,23.70
2017-06-13T17:46:35.006Z,23.70
2017-06-13T17:49:02.447Z,23.70
2017-06-13T17:51:29.895Z,23.80
2017-06-13T17:53:57.342Z,23.90
2017-06-13T17:56:24.815Z,23.60
2017-06-13T17:58:52.252Z,23.60
2017-06-13T18:01:19.695Z,23.50
2017-06-13T18:03:47.143Z,23.40
2017-06-13T18:06:14.596Z,23.40
2017-06-13T18:08:42.053Z,23.30
2017-06-13T18:11:09.498Z,23.30
2017-06-13T18:13:36.947Z,23.20
2017-06-13T18:16:04.396Z,23.20
2017-06-13T18:18:31.839Z,23.10
2017-06-13T18:20:59.279Z,23.00
2017-06-13T18:23:26.728Z,23.00
2017-06-13T18:25:54.167Z,22.90
2017-06-13T18:28:21.619Z,22.80
2017-06-13T18:30:49.835Z,22.70
2017-06-13T18:33:17.293Z,22.70
2017-06-13T18:35:44.735Z,22.70
2017-06-13T18:38:12.176Z,22.60
2017-06-13T18:40:39.631Z,22.70
2017-06-13T18:43:07.082Z,22.60
2017-06-13T18:45:35.293Z,22.60
2017-06-13T18:48:02.746Z,22.60
2017-06-13T18:50:30.202Z,22.50
2017-06-13T18:52:57.652Z,22.40
2017-06-13T18:55:25.095Z,22.10
2017-06-13T18:57:52.538Z,22.10
2017-06-13T19:00:19.996Z,22.10
2017-06-13T19:02:47.434Z,22.00
2017-06-13T19:05:15.654Z,22.00
2017-06-13T19:07:43.105Z,21.90
2017-06-13T19:10:10.562Z,21.80
2017-06-13T19:12:37.998Z,21.70
2017-06-13T19:15:05.451Z,21.70
2017-06-13T19:17:32.894Z,21.60
2017-06-13T19:20:00.363Z,21.30
2017-06-13T19:22:27.803Z,21.30
2017-06-13T19:24:56.023Z,21.20
2017-06-13T19:27:23.482Z,21.20
2017-06-13T19:29:50.918Z,21.00
2017-06-13T19:32:18.380Z,20.90
2017-06-13T19:34:45.822Z,20.40
2017-06-13T19:37:13.279Z,20.30
2017-06-13T19:39:40.738Z,20.50
2017-06-13T19:42:08.186Z,20.40
2017-06-13T19:44:35.631Z,20.40
2017-06-13T19:47:03.860Z,19.80
2017-06-13T19:49:31.303Z,19.80
2017-06-13T19:51:58.771Z,19.30
2017-06-13T19:54:26.220Z,19.20
2017-06-13T19:56:53.670Z,19.10
2017-06-13T19:59:21.132Z,19.10
2017-06-13T20:01:48.570Z,19.10
2017-06-13T20:04:16.018Z,19.10
2017-06-13T20:06:43.475Z,19.10
2017-06-13T20:09:10.927Z,19.10
2017-06-13T20:11:38.372Z,18.60
2017-06-13T20:14:06.611Z,18.30
2017-06-13T20:16:34.052Z,18.30
2017-06-13T20:19:01.495Z,18.40
2017-06-13T20:21:46.767Z,18.30
2017-06-13T20:24:14.222Z,18.20
2017-06-13T20:26:41.684Z,18.00
2017-06-13T20:29:14.130Z,17.70
2017-06-13T20:31:41.575Z,17.50
2017-06-13T20:34:09.787Z,17.50
2017-06-13T20:36:37.227Z,17.50
2017-06-13T20:39:04.671Z,17.60
2017-06-13T20:41:32.112Z,17.80
2017-06-13T20:44:00.343Z,17.40
2017-06-13T20:46:27.795Z,17.30
2017-06-13T20:48:55.239Z,17.20
2017-06-13T20:51:22.697Z,17.00
2017-06-13T20:53:50.143Z,17.00
2017-06-13T20:56:17.583Z,16.80
2017-06-13T20:58:45.035Z,16.70
2017-06-13T21:01:12.487Z,16.70
2017-06-13T21:03:39.935Z,16.60
2017-06-13T21:06:08.151Z,16.60
2017-06-13T21:08:35.602Z,16.50
2017-06-13T21:11:03.061Z,16.50
2017-06-13T21:13:30.504Z,16.50
2017-06-13T21:15:57.954Z,16.70
2017-06-13T21:18:25.403Z,16.70
2017-06-13T21:20:53.583Z,16.60
2017-06-13T21:23:21.018Z,16.60
2017-06-13T21:25:49.232Z,16.30
2017-06-13T21:28:16.687Z,16.20
2017-06-13T21:30:44.137Z,16.40
2017-06-13T21:33:11.594Z,16.30
2017-06-13T21:35:39.038Z,16.40
2017-06-13T21:38:06.488Z,16.40
2017-06-13T21:40:33.926Z,16.50
2017-06-13T21:43:02.144Z,16.60
2017-06-13T21:45:29.583Z,16.50
2017-06-13T21:47:57.039Z,16.70
2017-06-13T21:50:24.495Z,16.80
2017-06-13T21:52:51.957Z,17.00
2017-06-13T21:55:19.398Z,17.20
2017-06-13T21:57:46.834Z,17.40
2017-06-13T22:00:15.051Z,17.70
2017-06-13T22:02:42.495Z,17.70
2017-06-13T22:05:09.963Z,17.70
2017-06-13T22:07:37.407Z,17.50
2017-06-13T22:10:04.874Z,17.50
2017-06-13T22:12:32.307Z,17.60
2017-06-13T22:14:59.750Z,17.70
2017-06-13T22:17:27.964Z,18.00
2017-06-13T22:19:55.420Z,18.00
2017-06-13T22:22:22.863Z,18.10
2017-06-13T22:24:50.319Z,18.10
2017-06-13T22:27:17.782Z,18.20
2017-06-13T22:29:45.210Z,17.80
2017-06-13T22:32:13.430Z,17.60
2017-06-13T22:34:40.875Z,17.50
2017-06-13T22:37:08.331Z,17.20
2017-06-13T22:39:35.780Z,16.90
2017-06-13T22:42:03.218Z,16.70
2017-06-13T22:44:30.658Z,16.00
2017-06-13T22:46:58.871Z,16.00
2017-06-13T22:49:26.328Z,16.00
2017-06-13T22:51:53.782Z,15.90
2017-06-13T22:54:21.248Z,15.80
2017-06-13T22:56:48.699Z,15.80
2017-06-13T22:59:16.159Z,15.90
2017-06-13T23:01:43.611Z,15.90
2017-06-13T23:04:11.067Z,15.90
2017-06-13T23:06:38.522Z,15.70
2017-06-13T23:09:05.996Z,15.70
2017-06-13T23:11:33.436Z,15.60
2017-06-13T23:14:00.891Z,15.50
2017-06-13T23:16:28.344Z,15.40
2017-06-13T23:18:55.804Z,15.10
2017-06-13T23:21:23.260Z,15.10
2017-06-13T23:23:50.695Z,15.10
2017-06-13T23:26:18.148Z,15.00
2017-06-13T23:28:46.542Z,14.90
2017-06-13T23:31:14.009Z,14.90
2017-06-13T23:33:41.462Z,14.90
2017-06-13T23:36:08.931Z,14.80
2017-06-13T23:38:36.394Z,14.80
2017-06-13T23:41:03.834Z,14.80
2017-06-13T23:43:31.291Z,14.80
2017-06-13T23:45:58.748Z,14.80
2017-06-13T23:48:26.203Z,14.80
2017-06-13T23:50:53.664Z,14.80
2017-06-13T23:53:21.117Z,14.80
2017-06-13T23:55:48.568Z,14.70
2017-06-13T23:58:16.030Z,14.70
